Time;durP1;ratioP1;P1;durP2;ratioP2;P2;SDS_P1;SDS_P2;PMS_P1;PMS_P2;Temp;Humidity;BMP_temperature;BMP_pressure;BME280_temperature;BME280_humidity;BME280_pressure;Samples;Min_cycle;Max_cycle;Signal;HPM_P1;HPM_P2
2023/03/07 00:00:30;;;;;;;19.40;12.30;;;1.50;99.90;;;;;;4996016;28;20188;-83
2023/03/07 00:02:56;;;;;;;21.30;12.53;;;1.60;99.90;;;;;;4995963;28;20176;-83
2023/03/07 00:05:21;;;;;;;23.23;13.77;;;1.60;99.90;;;;;;4996529;28;20542;-82
2023/03/07 00:07:47;;;;;;;21.00;12.60;;;1.70;99.90;;;;;;4995489;28;20180;-84
2023/03/07 00:10:13;;;;;;;19.77;12.23;;;1.70;99.90;;;;;;4987569;28;20194;-83
2023/03/07 00:12:38;;;;;;;20.47;12.77;;;1.70;99.90;;;;;;4997429;28;20203;-83
2023/03/07 00:15:05;;;;;;;20.43;12.77;;;1.70;99.90;;;;;;4984749;28;20267;-84
2023/03/07 00:17:30;;;;;;;19.97;11.70;;;1.70;99.90;;;;;;4978974;28;20179;-83
2023/03/07 00:19:56;;;;;;;23.70;13.63;;;1.70;99.90;;;;;;5003900;28;20235;-82
2023/03/07 00:22:22;;;;;;;20.87;12.37;;;1.80;99.90;;;;;;4996620;28;20176;-82
2023/03/07 00:24:47;;;;;;;21.43;13.00;;;1.80;99.90;;;;;;4995995;28;20213;-83
2023/03/07 00:27:13;;;;;;;21.37;12.67;;;1.80;99.90;;;;;;4978913;28;20176;-83
2023/03/07 00:29:39;;;;;;;22.60;13.17;;;1.80;99.90;;;;;;4977111;28;20612;-83
2023/03/07 00:32:05;;;;;;;21.17;12.77;;;1.80;99.90;;;;;;4994834;28;20176;-82
2023/03/07 00:34:30;;;;;;;19.40;12.90;;;1.80;99.90;;;;;;4992030;28;20662;-83
2023/03/07 00:36:56;;;;;;;23.00;13.37;;;1.80;99.90;;;;;;4996036;28;20175;-83
2023/03/07 00:39:22;;;;;;;21.90;13.10;;;1.80;99.90;;;;;;4984543;28;20567;-84
2023/03/07 00:41:47;;;;;;;23.47;13.17;;;1.80;99.90;;;;;;4992774;28;20187;-83
2023/03/07 00:44:13;;;;;;;25.20;13.87;;;1.80;99.90;;;;;;4983246;28;20648;-83
2023/03/07 00:46:38;;;;;;;22.13;12.40;;;1.90;99.90;;;;;;4980543;28;20666;-83
2023/03/07 00:49:04;;;;;;;22.13;12.30;;;2.00;99.90;;;;;;4995537;28;20274;-83
2023/03/07 00:51:30;;;;;;;20.70;13.07;;;2.00;99.90;;;;;;5000507;28;20178;-83
2023/03/07 00:53:55;;;;;;;23.93;13.63;;;2.00;99.90;;;;;;4996435;28;20205;-84
2023/03/07 00:56:23;;;;;;;24.20;12.83;;;2.00;99.90;;;;;;4979795;28;20184;-83
2023/03/07 00:58:49;;;;;;;23.33;13.13;;;2.00;99.90;;;;;;4994652;28;20187;-83
2023/03/07 01:01:19;;;;;;;23.77;14.17;;;2.10;99.90;;;;;;4994617;28;20281;-83
2023/03/07 01:03:48;;;;;;;23.20;14.00;;;2.10;99.90;;;;;;4976179;28;20668;-85
2023/03/07 01:06:16;;;;;;;23.37;13.17;;;2.10;99.90;;;;;;4982197;28;20186;-83
2023/03/07 01:08:42;;;;;;;26.20;13.60;;;2.10;99.90;;;;;;4975143;28;20215;-84
2023/03/07 01:11:09;;;;;;;23.63;13.87;;;2.10;99.90;;;;;;4974840;28;20217;-83
2023/03/07 01:13:36;;;;;;;22.97;13.20;;;2.20;99.90;;;;;;4975595;28;20584;-83
2023/03/07 01:16:11;;;;;;;23.93;14.17;;;2.20;99.90;;;;;;4976628;28;20160;-82
2023/03/07 01:18:37;;;;;;;26.30;14.77;;;2.20;99.90;;;;;;4991540;28;20506;-82
2023/03/07 01:21:22;;;;;;;28.93;15.20;;;2.30;99.90;;;;;;5013470;28;20188;-82
2023/03/07 01:23:49;;;;;;;27.87;14.53;;;2.30;99.90;;;;;;4990454;28;20196;-82
2023/03/07 01:26:17;;;;;;;25.23;14.90;;;2.30;99.90;;;;;;4985336;28;20184;-82
2023/03/07 01:28:43;;;;;;;24.43;13.87;;;2.30;99.90;;;;;;4996001;28;20206;-83
2023/03/07 01:31:10;;;;;;;25.03;14.77;;;2.40;99.90;;;;;;4994180;28;20188;-84
2023/03/07 01:33:35;;;;;;;28.43;15.13;;;2.30;99.90;;;;;;4995584;28;20190;-82
2023/03/07 01:36:01;;;;;;;29.00;15.53;;;2.30;99.90;;;;;;4990399;28;20177;-83
2023/03/07 01:38:32;;;;;;;26.30;15.00;;;2.20;99.90;;;;;;4987687;28;20221;-83
2023/03/07 01:41:02;;;;;;;27.10;15.67;;;2.30;99.90;;;;;;4993389;28;20199;-81
2023/03/07 01:43:31;;;;;;;25.27;14.27;;;2.10;99.90;;;;;;4977901;28;20182;-82
2023/03/07 01:46:15;;;;;;;24.17;13.83;;;2.20;99.90;;;;;;4995609;28;20228;-82
2023/03/07 01:48:43;;;;;;;27.33;14.53;;;2.00;99.90;;;;;;5002544;28;20625;-84
2023/03/07 01:51:09;;;;;;;26.27;13.73;;;2.00;99.90;;;;;;4989380;28;20178;-83
2023/03/07 01:53:35;;;;;;;26.97;14.60;;;2.00;99.90;;;;;;4981845;28;20173;-82
2023/03/07 01:56:02;;;;;;;27.07;14.87;;;2.00;99.90;;;;;;4989418;28;20184;-81
2023/03/07 01:58:28;;;;;;;25.60;14.30;;;2.00;99.90;;;;;;4976524;28;20192;-83
2023/03/07 02:00:54;;;;;;;25.20;13.97;;;1.90;99.90;;;;;;4992324;28;20708;-81
2023/03/07 02:03:38;;;;;;;26.10;14.37;;;2.00;99.90;;;;;;4995372;28;20168;-82
2023/03/07 02:06:08;;;;;;;26.93;15.00;;;2.00;99.90;;;;;;4983579;28;20188;-82
2023/03/07 02:08:35;;;;;;;23.70;14.30;;;2.00;99.90;;;;;;4979377;28;20196;-83
2023/03/07 02:11:01;;;;;;;24.33;13.23;;;2.00;99.90;;;;;;4980006;28;20244;-84
2023/03/07 02:13:27;;;;;;;29.13;14.70;;;2.00;99.90;;;;;;4992763;28;20180;-83
2023/03/07 02:15:53;;;;;;;26.03;12.53;;;2.10;99.90;;;;;;4989889;28;20729;-82
2023/03/07 02:18:24;;;;;;;23.80;13.23;;;2.10;99.90;;;;;;4991711;28;20174;-83
2023/03/07 02:20:55;;;;;;;25.77;13.30;;;2.10;99.90;;;;;;5014849;28;20242;-83
2023/03/07 02:23:42;;;;;;;22.97;13.80;;;2.10;99.90;;;;;;5014978;28;20167;-83
2023/03/07 02:26:16;;;;;;;24.43;13.50;;;2.10;99.90;;;;;;5013599;28;20179;-82
2023/03/07 02:28:43;;;;;;;22.70;12.60;;;2.10;99.90;;;;;;5445052;23;20196;-82
2023/03/07 02:31:10;;;;;;;27.20;13.87;;;2.10;99.90;;;;;;4976648;28;20192;-82
2023/03/07 02:33:36;;;;;;;24.03;13.50;;;2.10;99.90;;;;;;4975201;28;20192;-83
2023/03/07 02:36:09;;;;;;;24.43;13.77;;;2.10;99.90;;;;;;4974906;28;20185;-82
2023/03/07 02:38:38;;;;;;;26.07;13.77;;;2.10;99.90;;;;;;4986924;28;20182;-82
2023/03/07 02:41:06;;;;;;;23.77;12.77;;;2.10;99.90;;;;;;4989056;28;20199;-82
2023/03/07 02:43:31;;;;;;;24.67;13.37;;;2.10;99.90;;;;;;4985771;28;20183;-82
2023/03/07 02:45:57;;;;;;;25.70;14.13;;;2.10;99.90;;;;;;4983859;28;20176;-83
2023/03/07 02:48:23;;;;;;;26.03;13.50;;;2.00;99.90;;;;;;4979957;28;20183;-82
2023/03/07 02:50:48;;;;;;;23.20;12.77;;;2.10;99.90;;;;;;4993743;28;20183;-83
2023/03/07 02:53:14;;;;;;;22.70;12.30;;;2.00;99.90;;;;;;4992663;28;20614;-84
2023/03/07 02:55:40;;;;;;;26.50;12.60;;;2.00;99.90;;;;;;4992343;28;20179;-84
2023/03/07 02:58:06;;;;;;;24.20;13.50;;;2.00;99.90;;;;;;4992228;28;20184;-82
2023/03/07 03:00:32;;;;;;;24.53;13.30;;;2.00;99.90;;;;;;4994300;28;20561;-83
2023/03/07 03:02:58;;;;;;;23.00;11.80;;;1.90;99.90;;;;;;4994361;28;20270;-85
2023/03/07 03:05:24;;;;;;;24.27;13.67;;;1.90;99.90;;;;;;4993837;28;20729;-83
2023/03/07 03:07:49;;;;;;;28.00;13.73;;;1.90;99.90;;;;;;4994896;28;20177;-82
2023/03/07 03:10:16;;;;;;;23.83;12.53;;;1.90;99.90;;;;;;4978106;28;20977;-82
2023/03/07 03:12:42;;;;;;;23.37;13.23;;;1.80;99.90;;;;;;4975745;28;20592;-85
2023/03/07 03:15:09;;;;;;;25.40;12.80;;;1.90;99.90;;;;;;4984139;28;20187;-80
2023/03/07 03:17:35;;;;;;;25.43;12.60;;;1.90;99.90;;;;;;4985905;28;20183;-83
2023/03/07 03:20:03;;;;;;;24.97;13.43;;;1.90;99.90;;;;;;4992997;28;20618;-83
2023/03/07 03:22:29;;;;;;;26.13;12.83;;;1.90;99.90;;;;;;4984853;28;20219;-83
2023/03/07 03:24:55;;;;;;;24.47;12.00;;;1.90;99.90;;;;;;4974831;28;20282;-83
2023/03/07 03:27:20;;;;;;;23.43;12.40;;;1.90;99.90;;;;;;4985995;28;20197;-80
2023/03/07 03:29:46;;;;;;;23.90;12.50;;;1.80;99.90;;;;;;4975009;28;20228;-85
2023/03/07 03:32:12;;;;;;;21.67;12.67;;;1.80;99.90;;;;;;4988064;28;20188;-81
2023/03/07 03:34:38;;;;;;;26.23;13.47;;;1.90;99.90;;;;;;4993605;28;20171;-83
2023/03/07 03:37:03;;;;;;;20.47;11.60;;;1.90;99.90;;;;;;4994192;28;20191;-83
2023/03/07 03:39:29;;;;;;;22.87;11.90;;;1.90;99.90;;;;;;4990355;28;20231;-83
2023/03/07 03:41:55;;;;;;;23.03;11.97;;;1.90;99.90;;;;;;4982221;28;20176;-83
2023/03/07 03:44:21;;;;;;;20.43;11.53;;;1.90;99.90;;;;;;4991897;28;20228;-81
2023/03/07 03:46:47;;;;;;;23.63;12.43;;;1.90;99.90;;;;;;4993771;28;20518;-82
2023/03/07 03:49:15;;;;;;;20.40;10.97;;;1.90;99.90;;;;;;4982288;28;20183;-82
2023/03/07 03:51:41;;;;;;;24.20;12.40;;;1.90;99.90;;;;;;4973509;28;20206;-79
2023/03/07 03:54:07;;;;;;;22.10;12.00;;;1.90;99.90;;;;;;4977184;28;20622;-82
2023/03/07 03:56:32;;;;;;;21.73;11.70;;;1.90;99.90;;;;;;4984455;28;20186;-82
2023/03/07 03:58:58;;;;;;;19.83;11.43;;;1.90;99.90;;;;;;4979209;28;20193;-82
2023/03/07 04:01:26;;;;;;;20.63;10.97;;;1.90;99.90;;;;;;4993430;28;20520;-81
2023/03/07 04:03:53;;;;;;;24.03;11.90;;;1.90;99.90;;;;;;4992453;28;20352;-80
2023/03/07 04:06:31;;;;;;;20.47;11.97;;;1.90;99.90;;;;;;4993630;28;20176;-80
2023/03/07 04:08:57;;;;;;;23.13;11.00;;;1.90;99.90;;;;;;4992461;28;20596;-80
2023/03/07 04:11:24;;;;;;;20.33;10.73;;;1.90;99.90;;;;;;4992142;28;20702;-83
2023/03/07 04:13:49;;;;;;;20.87;10.43;;;1.90;99.90;;;;;;4991696;28;20231;-80
2023/03/07 04:16:16;;;;;;;20.63;10.57;;;1.90;99.90;;;;;;4984973;28;20263;-84
2023/03/07 04:18:43;;;;;;;20.50;11.77;;;1.90;99.90;;;;;;4992383;28;20179;-84
2023/03/07 04:21:10;;;;;;;19.50;10.70;;;1.90;99.90;;;;;;4992011;28;20193;-81
2023/03/07 04:23:35;;;;;;;20.77;11.60;;;2.00;99.90;;;;;;4992809;28;20171;-81
2023/03/07 04:26:03;;;;;;;22.37;11.77;;;2.00;99.90;;;;;;4991754;28;20187;-82
2023/03/07 04:28:45;;;;;;;19.07;10.70;;;2.00;99.90;;;;;;4991805;28;20581;-85
2023/03/07 04:31:18;;;;;;;20.10;11.00;;;2.00;99.90;;;;;;4988923;28;20206;-81
2023/03/07 04:33:45;;;;;;;17.57;9.87;;;2.00;99.90;;;;;;4973069;28;20219;-82
2023/03/07 04:36:11;;;;;;;21.07;10.77;;;2.00;99.90;;;;;;4972947;28;20546;-81
2023/03/07 04:38:37;;;;;;;21.27;11.17;;;2.00;99.90;;;;;;4972922;28;20596;-83
2023/03/07 04:41:05;;;;;;;18.07;10.60;;;2.00;99.90;;;;;;4977500;28;20175;-83
2023/03/07 04:43:31;;;;;;;21.20;11.53;;;2.00;99.90;;;;;;4975841;28;20184;-83
2023/03/07 04:45:56;;;;;;;20.67;11.37;;;2.00;99.90;;;;;;4975533;28;20194;-82
2023/03/07 04:48:22;;;;;;;19.33;10.93;;;2.00;99.90;;;;;;4977456;28;20206;-83
2023/03/07 04:50:49;;;;;;;22.77;10.87;;;2.00;99.90;;;;;;4977492;28;20176;-81
2023/03/07 04:53:17;;;;;;;24.47;11.63;;;2.00;99.90;;;;;;4977015;28;20187;-83
2023/03/07 04:55:43;;;;;;;17.67;9.90;;;2.00;99.90;;;;;;4976393;28;20234;-82
2023/03/07 04:58:11;;;;;;;18.80;10.57;;;2.00;99.90;;;;;;4996523;28;20180;-82
2023/03/07 05:00:42;;;;;;;18.27;9.63;;;2.00;99.90;;;;;;4996663;28;20188;-84
2023/03/07 05:03:12;;;;;;;18.57;10.50;;;2.00;99.90;;;;;;4995699;28;20185;-83
2023/03/07 05:05:38;;;;;;;18.73;10.03;;;2.10;99.90;;;;;;4995594;28;20658;-83
2023/03/07 05:08:04;;;;;;;22.83;11.20;;;2.10;99.90;;;;;;4978910;28;20186;-82
2023/03/07 05:10:31;;;;;;;18.17;10.63;;;2.10;99.90;;;;;;4982230;28;20184;-83
2023/03/07 05:12:59;;;;;;;20.30;10.50;;;2.10;99.90;;;;;;4994615;28;20180;-83
2023/03/07 05:15:24;;;;;;;19.47;10.27;;;2.10;99.90;;;;;;4995454;28;20188;-84
2023/03/07 05:17:50;;;;;;;20.23;11.20;;;2.10;99.90;;;;;;4995675;28;20637;-84
2023/03/07 05:20:16;;;;;;;16.47;9.13;;;2.10;99.90;;;;;;4995275;28;20271;-85
2023/03/07 05:22:42;;;;;;;18.37;9.87;;;2.10;99.90;;;;;;4994863;28;20187;-83
2023/03/07 05:25:08;;;;;;;18.30;10.03;;;2.10;99.90;;;;;;4994929;28;20654;-82
2023/03/07 05:27:34;;;;;;;19.23;10.37;;;2.10;99.90;;;;;;4995292;28;20187;-83
2023/03/07 05:30:00;;;;;;;17.33;9.97;;;2.10;99.90;;;;;;4994772;28;20611;-83
2023/03/07 05:32:26;;;;;;;14.77;8.97;;;2.10;99.90;;;;;;4991715;28;20280;-83
2023/03/07 05:34:51;;;;;;;16.47;9.53;;;2.10;99.90;;;;;;4975581;28;20685;-83
2023/03/07 05:37:17;;;;;;;17.73;9.70;;;2.20;99.90;;;;;;4975773;28;20607;-83
2023/03/07 05:39:43;;;;;;;14.90;8.50;;;2.30;99.90;;;;;;4989207;28;20497;-83
2023/03/07 05:42:08;;;;;;;12.07;7.67;;;2.40;99.90;;;;;;4974427;28;20187;-83
2023/03/07 05:44:34;;;;;;;11.77;7.30;;;2.40;99.90;;;;;;4994534;28;20302;-83
2023/03/07 05:46:59;;;;;;;13.97;7.80;;;2.40;99.90;;;;;;4994749;28;20175;-83
2023/03/07 05:49:25;;;;;;;10.10;6.90;;;2.50;99.90;;;;;;4993687;28;20187;-82
2023/03/07 05:51:51;;;;;;;10.40;6.37;;;2.50;99.90;;;;;;4993937;28;20494;-82
2023/03/07 05:54:17;;;;;;;11.70;7.83;;;2.40;99.90;;;;;;4994230;28;20202;-81
2023/03/07 05:56:43;;;;;;;13.20;7.33;;;2.30;99.90;;;;;;4995877;28;20203;-82
2023/03/07 05:59:11;;;;;;;12.33;7.57;;;2.20;99.90;;;;;;4995791;28;20199;-81
2023/03/07 06:01:37;;;;;;;9.30;5.77;;;2.30;99.90;;;;;;4993386;28;20176;-82
2023/03/07 06:04:03;;;;;;;9.57;5.90;;;2.20;99.90;;;;;;4993066;28;20214;-83
2023/03/07 06:06:28;;;;;;;7.43;5.20;;;2.20;99.90;;;;;;4993920;28;20220;-82
2023/03/07 06:08:54;;;;;;;7.30;4.50;;;2.10;99.90;;;;;;4985048;28;20283;-82
2023/03/07 06:11:20;;;;;;;6.40;4.80;;;2.00;99.90;;;;;;4979955;28;20179;-82
2023/03/07 06:13:45;;;;;;;6.87;3.03;;;2.00;99.90;;;;;;4994358;28;20188;-82
2023/03/07 06:16:11;;;;;;;4.83;3.00;;;1.90;99.90;;;;;;4976373;28;20186;-80
2023/03/07 06:18:37;;;;;;;3.93;2.00;;;1.80;99.90;;;;;;4973693;28;20318;-82
2023/03/07 06:21:05;;;;;;;4.27;2.60;;;1.70;99.90;;;;;;4993294;28;20179;-82
2023/03/07 06:23:34;;;;;;;3.23;2.30;;;1.60;99.90;;;;;;4993958;28;20506;-82
2023/03/07 06:26:00;;;;;;;4.67;2.47;;;1.50;99.90;;;;;;4995419;28;20175;-82
2023/03/07 06:28:25;;;;;;;4.20;2.03;;;1.50;99.90;;;;;;4988777;28;20267;-83
2023/03/07 06:30:51;;;;;;;9.30;1.90;;;1.50;99.90;;;;;;4990362;28;20234;-84
2023/03/07 06:33:17;;;;;;;6.77;2.00;;;1.50;99.90;;;;;;4992787;28;20183;-83
2023/03/07 06:35:45;;;;;;;6.67;2.87;;;1.60;99.90;;;;;;4993719;28;20182;-83
2023/03/07 06:38:12;;;;;;;6.23;2.20;;;1.60;99.90;;;;;;4995151;28;20227;-82
2023/03/07 06:40:38;;;;;;;4.90;1.70;;;1.60;99.90;;;;;;4994906;28;20182;-81
2023/03/07 06:43:05;;;;;;;3.50;1.80;;;1.60;99.90;;;;;;4993271;28;20234;-82
2023/03/07 06:45:31;;;;;;;6.23;2.10;;;1.70;99.90;;;;;;4992475;28;20702;-83
2023/03/07 06:47:57;;;;;;;6.17;2.00;;;1.70;99.90;;;;;;4993695;28;20187;-82
2023/03/07 06:50:22;;;;;;;3.57;1.73;;;1.70;99.90;;;;;;4993535;28;20274;-84
2023/03/07 06:52:50;;;;;;;5.93;1.60;;;1.80;99.90;;;;;;4993956;28;20219;-84
2023/03/07 06:55:17;;;;;;;2.37;1.00;;;1.80;99.90;;;;;;4993448;28;20188;-83
2023/03/07 06:57:43;;;;;;;7.17;1.20;;;1.80;99.90;;;;;;4994887;28;20176;-83
2023/03/07 07:00:10;;;;;;;5.43;1.40;;;1.80;99.90;;;;;;4993441;28;20187;-81
2023/03/07 07:02:35;;;;;;;4.40;1.33;;;2.00;99.90;;;;;;4993787;28;20176;-81
2023/03/07 07:05:02;;;;;;;8.60;1.73;;;2.00;99.90;;;;;;4994500;28;20672;-82
2023/03/07 07:07:28;;;;;;;5.13;1.50;;;2.00;99.90;;;;;;4994778;28;20176;-82
2023/03/07 07:09:53;;;;;;;4.57;1.27;;;2.00;99.90;;;;;;4992247;28;20205;-82
2023/03/07 07:12:19;;;;;;;4.30;1.50;;;2.20;99.90;;;;;;4993188;28;20180;-81
2023/03/07 07:14:49;;;;;;;6.10;1.20;;;2.20;99.90;;;;;;4993604;28;20523;-81
2023/03/07 07:17:15;;;;;;;3.70;1.47;;;2.20;99.90;;;;;;4994651;28;20611;-82
2023/03/07 07:19:40;;;;;;;6.33;1.33;;;2.20;99.90;;;;;;5009412;28;20203;-83
2023/03/07 07:22:10;;;;;;;3.50;1.33;;;2.30;99.90;;;;;;4993102;28;20520;-82
2023/03/07 07:24:38;;;;;;;5.33;1.40;;;2.30;99.90;;;;;;4994319;28;20302;-81
2023/03/07 07:27:04;;;;;;;4.33;0.90;;;2.30;99.90;;;;;;4993184;28;20176;-83
2023/03/07 07:29:29;;;;;;;3.80;1.23;;;2.30;99.90;;;;;;4993833;28;20232;-82
2023/03/07 07:31:55;;;;;;;4.83;1.00;;;2.30;99.90;;;;;;4992580;28;20185;-82
2023/03/07 07:34:21;;;;;;;4.90;1.47;;;2.40;99.90;;;;;;4986911;28;20184;-81
2023/03/07 07:36:47;;;;;;;5.03;1.57;;;2.40;99.90;;;;;;4992991;28;20180;-82
2023/03/07 07:39:14;;;;;;;2.13;1.27;;;2.40;99.90;;;;;;4992863;28;20189;-82
2023/03/07 07:41:40;;;;;;;3.93;1.43;;;2.50;99.90;;;;;;4991521;28;20559;-82
2023/03/07 07:44:06;;;;;;;4.03;1.70;;;2.50;99.90;;;;;;4989359;28;21030;-82
2023/03/07 07:46:31;;;;;;;3.60;1.13;;;2.50;99.90;;;;;;4989711;28;20263;-82
2023/03/07 07:48:57;;;;;;;3.20;1.30;;;2.50;99.90;;;;;;4974637;28;20223;-82
2023/03/07 07:51:23;;;;;;;5.17;1.50;;;2.50;99.90;;;;;;4989505;28;20183;-81
2023/03/07 07:53:48;;;;;;;3.20;1.33;;;2.60;99.90;;;;;;4974720;28;20677;-82
2023/03/07 07:56:14;;;;;;;3.07;1.17;;;2.60;99.90;;;;;;4973457;28;20625;-82
2023/03/07 07:58:40;;;;;;;2.67;1.40;;;2.70;99.90;;;;;;4996694;28;20638;-82
2023/03/07 08:01:17;;;;;;;2.77;1.57;;;2.70;99.90;;;;;;4990867;28;20638;-83
2023/03/07 08:03:43;;;;;;;4.63;1.57;;;2.70;99.90;;;;;;4991911;28;20270;-82
2023/03/07 08:06:09;;;;;;;4.33;1.60;;;2.80;99.90;;;;;;4985642;28;20235;-82
2023/03/07 08:08:35;;;;;;;2.17;1.30;;;2.70;99.90;;;;;;4974528;28;20181;-82
2023/03/07 08:11:01;;;;;;;3.60;1.63;;;2.70;99.90;;;;;;4974566;28;20199;-80
2023/03/07 08:13:27;;;;;;;6.03;1.47;;;2.80;99.90;;;;;;4975804;28;21440;-81
2023/03/07 08:15:53;;;;;;;4.33;1.40;;;2.80;99.90;;;;;;4989046;28;20633;-82
2023/03/07 08:18:19;;;;;;;2.53;0.83;;;2.80;99.90;;;;;;4994529;28;20180;-82
2023/03/07 08:20:44;;;;;;;2.53;1.20;;;2.90;99.90;;;;;;4996242;28;20203;-81
2023/03/07 08:23:10;;;;;;;3.90;1.07;;;2.90;99.90;;;;;;4996124;28;20796;-83
2023/03/07 08:25:36;;;;;;;2.47;1.00;;;2.80;99.90;;;;;;4997446;28;20215;-81
2023/03/07 08:28:04;;;;;;;2.13;1.00;;;2.80;99.90;;;;;;4995989;28;20180;-82
2023/03/07 08:30:31;;;;;;;2.87;1.10;;;2.80;99.90;;;;;;4997275;28;20238;-81
2023/03/07 08:32:58;;;;;;;5.87;1.20;;;2.80;99.90;;;;;;4996286;28;20495;-81
2023/03/07 08:35:25;;;;;;;3.97;1.10;;;2.80;99.90;;;;;;4997279;28;20175;-80
2023/03/07 08:37:57;;;;;;;8.73;1.27;;;2.80;99.90;;;;;;4997363;28;20183;-81
2023/03/07 08:40:23;;;;;;;2.10;0.90;;;2.80;99.90;;;;;;4995925;28;20202;-81
2023/03/07 08:42:49;;;;;;;4.97;1.30;;;2.80;99.90;;;;;;4997083;28;20558;-81
2023/03/07 08:45:16;;;;;;;5.17;1.17;;;2.80;99.90;;;;;;4995777;28;20218;-82
2023/03/07 08:47:41;;;;;;;2.63;0.93;;;2.80;99.90;;;;;;4995943;28;20176;-81
2023/03/07 08:50:08;;;;;;;3.80;1.00;;;2.80;99.90;;;;;;4997116;28;20259;-82
2023/03/07 08:52:34;;;;;;;2.63;1.10;;;2.90;99.90;;;;;;4995148;28;20176;-81
2023/03/07 08:54:59;;;;;;;5.27;1.60;;;2.90;99.90;;;;;;4994432;28;20191;-81
2023/03/07 08:57:25;;;;;;;3.30;1.37;;;2.90;99.90;;;;;;4994061;28;20259;-81
2023/03/07 08:59:50;;;;;;;2.07;1.00;;;3.00;99.90;;;;;;4994545;28;20180;-80
2023/03/07 09:02:16;;;;;;;3.57;1.27;;;3.00;99.90;;;;;;4995105;28;20187;-81
2023/03/07 09:04:42;;;;;;;2.40;1.17;;;3.00;99.90;;;;;;4995528;28;20208;-81
2023/03/07 09:07:08;;;;;;;2.60;1.47;;;3.00;99.90;;;;;;4996816;28;20662;-81
2023/03/07 09:09:34;;;;;;;9.07;1.90;;;3.00;99.90;;;;;;4983627;28;20546;-81
2023/03/07 09:11:59;;;;;;;2.90;1.40;;;3.00;99.90;;;;;;4976039;28;20312;-81
2023/03/07 09:14:25;;;;;;;2.73;1.43;;;3.00;99.90;;;;;;4976023;28;20185;-80
2023/03/07 09:16:51;;;;;;;3.20;1.20;;;3.10;99.90;;;;;;4977219;28;20165;-80
2023/03/07 09:19:16;;;;;;;2.67;1.27;;;3.10;99.90;;;;;;4977038;28;20181;-80
2023/03/07 09:21:42;;;;;;;5.30;1.30;;;3.10;99.90;;;;;;4975708;28;20173;-80
2023/03/07 09:24:08;;;;;;;4.90;1.33;;;3.00;99.90;;;;;;4985205;28;20711;-80
2023/03/07 09:26:33;;;;;;;2.67;1.10;;;3.00;99.90;;;;;;4995866;28;20172;-81
2023/03/07 09:28:59;;;;;;;5.07;1.47;;;3.00;99.90;;;;;;4994874;28;20219;-80
2023/03/07 09:31:25;;;;;;;5.77;1.20;;;3.00;99.90;;;;;;4996170;28;20195;-80
2023/03/07 09:33:51;;;;;;;7.93;1.67;;;3.00;99.90;;;;;;4996278;28;20518;-81
2023/03/07 09:36:18;;;;;;;4.00;1.20;;;3.00;99.90;;;;;;4995729;28;20180;-81
2023/03/07 09:38:45;;;;;;;4.50;1.10;;;3.00;99.90;;;;;;4996087;28;20222;-80
2023/03/07 09:41:30;;;;;;;2.63;1.30;;;2.90;99.90;;;;;;4996083;28;20698;-81
2023/03/07 09:44:19;;;;;;;5.23;1.13;;;2.90;99.90;;;;;;4992955;28;20211;-80
2023/03/07 09:47:18;;;;;;;3.97;1.30;;;3.00;99.90;;;;;;4976460;28;20211;-81
2023/03/07 09:49:46;;;;;;;4.07;1.30;;;2.90;99.90;;;;;;4987914;28;20186;-80
2023/03/07 09:52:25;;;;;;;3.20;1.33;;;3.00;99.90;;;;;;4993780;28;20183;-80
2023/03/07 09:55:04;;;;;;;5.70;1.50;;;3.00;99.90;;;;;;4995555;28;20184;-80
2023/03/07 09:57:44;;;;;;;6.10;1.50;;;3.00;99.90;;;;;;4994239;28;20917;-81
2023/03/07 10:00:30;;;;;;;2.63;1.40;;;3.00;99.90;;;;;;4994366;28;20622;-80
2023/03/07 10:03:15;;;;;;;3.20;1.30;;;3.00;99.90;;;;;;4993821;28;20179;-81
2023/03/07 10:05:47;;;;;;;4.30;1.40;;;3.00;99.90;;;;;;4993616;28;20207;-81
2023/03/07 10:08:23;;;;;;;4.53;1.70;;;3.00;99.90;;;;;;4995093;28;20623;-82
2023/03/07 10:11:01;;;;;;;6.07;1.50;;;2.90;99.90;;;;;;4988860;28;20185;-80
2023/03/07 10:13:49;;;;;;;3.80;1.33;;;2.90;99.90;;;;;;4975971;28;20222;-81
2023/03/07 10:16:30;;;;;;;6.30;1.60;;;2.80;99.90;;;;;;4974903;28;20181;-81
2023/03/07 10:19:05;;;;;;;3.03;1.13;;;2.70;99.90;;;;;;4974689;28;20177;-80
2023/03/07 10:21:55;;;;;;;5.00;1.73;;;2.70;99.90;;;;;;4975171;28;20180;-81
2023/03/07 10:24:55;;;;;;;3.17;1.40;;;2.70;99.90;;;;;;4984989;28;20213;-81
2023/03/07 10:27:25;;;;;;;2.27;1.17;;;2.60;99.90;;;;;;4975570;28;20184;-80
2023/03/07 10:29:54;;;;;;;4.67;1.57;;;2.60;99.90;;;;;;4993259;28;20231;-83
2023/03/07 10:32:40;;;;;;;2.93;1.50;;;2.50;99.90;;;;;;4995060;28;20199;-80
2023/03/07 10:35:11;;;;;;;3.70;1.50;;;2.50;99.90;;;;;;4994334;28;20247;-82
2023/03/07 10:37:54;;;;;;;1.50;1.20;;;2.60;99.90;;;;;;4994154;28;20203;-81
2023/03/07 10:40:30;;;;;;;3.50;1.10;;;2.50;99.90;;;;;;4993739;28;20175;-82
2023/03/07 10:42:57;;;;;;;3.07;1.37;;;2.50;99.90;;;;;;4974214;28;20187;-82
2023/03/07 10:45:29;;;;;;;3.47;1.07;;;2.40;99.90;;;;;;4974303;28;20212;-81
2023/03/07 10:48:08;;;;;;;3.20;1.50;;;2.40;99.90;;;;;;4974632;28;20608;-80
2023/03/07 10:50:52;;;;;;;3.20;1.83;;;2.40;99.90;;;;;;4975297;28;20161;-82
2023/03/07 10:53:25;;;;;;;3.20;1.33;;;2.40;99.90;;;;;;4975210;28;20172;-80
2023/03/07 10:55:51;;;;;;;1.90;1.27;;;2.40;99.90;;;;;;4975476;28;20604;-81
2023/03/07 10:58:27;;;;;;;6.73;1.53;;;2.40;99.90;;;;;;4980573;28;20180;-82
2023/03/07 11:01:16;;;;;;;4.57;1.90;;;2.40;99.90;;;;;;4993133;28;20518;-81
2023/03/07 11:03:51;;;;;;;5.57;1.60;;;2.50;99.90;;;;;;4982329;28;20196;-81
2023/03/07 11:06:33;;;;;;;3.07;1.80;;;2.50;99.90;;;;;;4982560;28;20218;-81
2023/03/07 11:09:12;;;;;;;3.10;1.53;;;2.50;99.90;;;;;;4992448;28;20235;-81
2023/03/07 11:11:37;;;;;;;2.27;1.57;;;2.50;99.90;;;;;;4992432;28;20180;-81
2023/03/07 11:14:09;;;;;;;5.83;1.30;;;2.40;99.90;;;;;;4994424;28;20187;-81
2023/03/07 11:16:48;;;;;;;2.23;1.30;;;2.40;99.90;;;;;;4993312;28;20188;-82
2023/03/07 11:19:31;;;;;;;1.87;1.47;;;2.40;99.90;;;;;;4994443;28;20176;-81
2023/03/07 11:21:58;;;;;;;3.83;1.60;;;2.50;99.90;;;;;;4993077;28;20187;-81
2023/03/07 11:24:27;;;;;;;5.90;1.93;;;2.50;99.90;;;;;;4993022;28;20219;-81
2023/03/07 11:26:57;;;;;;;3.80;2.10;;;2.40;99.90;;;;;;4991904;28;20632;-81
2023/03/07 11:29:33;;;;;;;4.10;2.20;;;2.40;99.90;;;;;;4992942;28;20231;-81
2023/03/07 11:32:03;;;;;;;5.10;2.53;;;2.40;99.90;;;;;;4993058;28;20184;-81
2023/03/07 11:34:52;;;;;;;5.70;2.33;;;2.50;99.90;;;;;;4993143;28;20180;-81
2023/03/07 11:37:38;;;;;;;2.40;1.83;;;2.50;99.90;;;;;;4992463;28;20196;-82
2023/03/07 11:40:24;;;;;;;6.70;2.00;;;2.60;99.90;;;;;;4994321;28;20303;-81
2023/03/07 11:43:12;;;;;;;2.60;1.57;;;2.70;99.90;;;;;;4992819;28;20184;-82
2023/03/07 11:45:59;;;;;;;3.10;1.37;;;2.70;99.90;;;;;;4994229;28;20208;-81
2023/03/07 11:48:44;;;;;;;3.57;1.50;;;2.60;99.90;;;;;;4994299;28;20562;-81
2023/03/07 11:51:38;;;;;;;2.63;1.43;;;2.60;99.90;;;;;;4995463;28;20180;-81
2023/03/07 11:54:22;;;;;;;3.17;1.30;;;2.60;99.90;;;;;;4991621;28;20550;-82
2023/03/07 11:56:58;;;;;;;2.07;1.03;;;2.70;99.90;;;;;;4978605;28;20184;-82
2023/03/07 11:59:41;;;;;;;3.00;1.10;;;2.60;99.90;;;;;;4976993;28;20176;-82
2023/03/07 12:02:36;;;;;;;2.00;1.10;;;2.60;99.90;;;;;;4977108;28;20172;-81
2023/03/07 12:05:20;;;;;;;4.03;1.10;;;2.50;99.90;;;;;;4984184;28;20261;-81
2023/03/07 12:07:51;;;;;;;2.77;1.00;;;2.50;99.90;;;;;;4996832;28;20182;-82
2023/03/07 12:10:29;;;;;;;3.67;1.10;;;2.50;99.90;;;;;;4995392;28;20303;-82
2023/03/07 12:13:10;;;;;;;1.70;1.27;;;2.50;99.90;;;;;;4987541;28;20184;-82
2023/03/07 12:15:56;;;;;;;2.93;1.20;;;2.50;99.90;;;;;;4978424;28;20170;-82
2023/03/07 12:18:24;;;;;;;1.60;1.33;;;2.50;99.90;;;;;;4979438;28;20188;-82
2023/03/07 12:21:11;;;;;;;4.87;1.47;;;2.50;99.90;;;;;;4992520;28;20242;-81
2023/03/07 12:24:16;;;;;;;3.33;1.40;;;2.40;99.90;;;;;;4987263;28;20274;-82
2023/03/07 12:27:16;;;;;;;2.60;1.73;;;2.50;99.90;;;;;;4995888;28;20274;-82
2023/03/07 12:29:48;;;;;;;3.53;1.40;;;2.40;99.90;;;;;;4992683;28;20263;-81
2023/03/07 12:32:40;;;;;;;2.57;1.50;;;2.40;99.90;;;;;;4996949;28;20211;-82
2023/03/07 12:35:09;;;;;;;1.93;1.40;;;2.50;99.90;;;;;;4974402;28;20206;-81
2023/03/07 12:37:54;;;;;;;3.33;1.63;;;2.50;99.90;;;;;;4996051;28;20657;-82
2023/03/07 12:40:33;;;;;;;2.00;1.10;;;2.50;99.90;;;;;;4996196;28;20207;-81
2023/03/07 12:43:23;;;;;;;3.80;1.80;;;2.50;99.90;;;;;;4996909;28;20262;-82
2023/03/07 12:46:08;;;;;;;4.43;1.40;;;2.60;99.90;;;;;;4997192;28;20235;-81
2023/03/07 12:49:00;;;;;;;1.93;1.30;;;2.60;99.90;;;;;;4995989;28;20203;-81
2023/03/07 12:51:34;;;;;;;3.47;1.50;;;2.60;99.90;;;;;;4977383;28;20282;-81
2023/03/07 12:54:12;;;;;;;3.03;1.20;;;2.60;99.90;;;;;;4988692;28;20984;-80
2023/03/07 12:57:01;;;;;;;1.37;1.10;;;2.60;99.90;;;;;;4995487;28;20173;-79
2023/03/07 12:59:29;;;;;;;3.97;1.30;;;2.60;99.90;;;;;;4995810;28;20172;-80
2023/03/07 13:02:05;;;;;;;3.57;1.33;;;2.70;99.90;;;;;;4995625;28;20659;-81